Terminal Aerodrome Forecast
Issued by NWS

Home | Current Version | Previous Version | Text Only | Print | Product List | Glossary On
Versions: 1 2 3 4 5 6 7 8 9 10 11 12
000
FTUS45 KVEF 301138
TAFBIH
TAF
KBIH 301138Z 3012/0112 VRB04KT P6SM FEW150 SCT200
     FM301900 17012G20KT P6SM FEW110 SCT150
     FM010300 33006KT P6SM FEW120 SCT200=

USA.gov is the U.S. government's official web portal to all federal, state and local government web resources and services.